Reese Air Force Base, Texas
Current Conditions -  °F | °C
As of 10:53 PM on Thursday 30 Oct 2014 (Local Time) from KLBB Reporting Station
Clear Clear  
Wind Chill: 51°   Ceiling: Unl
Heat Index: 51°   Visibility: 10mi
Dew Point: 33°   Wind: 9mph
Humidity: 50%   Direction: 40°NE
Pressure: 30.3"   Gusts: NA
Location:  33.5936°N, 102.0291°W
Report Text: KLBB 310353Z 04008KT 10SM CLR 11/01 A3030 RMK AO2 SLP237 T01060006
Loading
Personal Weather Stations






























Interactive Weather Map
Tropical Storm Tracking
New forecast layout! Learn more

10-Day Weather Forecast

Advertisements
Track Severe Weather on mobile